createdAt,value
2017-05-20T00:00:46.626Z,13.3
2017-05-20T00:03:10.009Z,13.37
2017-05-20T00:05:33.393Z,13.36
2017-05-20T00:07:56.782Z,13.36
2017-05-20T00:10:20.129Z,13.47
2017-05-20T00:12:21.273Z,13.42
2017-05-20T00:14:44.682Z,13.37
2017-05-20T00:17:08.091Z,13.46
2017-05-20T00:19:31.464Z,13.2
2017-05-20T00:21:33.143Z,13.19
2017-05-20T00:23:56.572Z,13.13
2017-05-20T00:26:11.519Z,13.08
2017-05-20T00:28:34.913Z,12.95
2017-05-20T00:30:36.091Z,12.88
2017-05-20T00:32:59.505Z,12.87
2017-05-20T00:35:22.898Z,12.99
2017-05-20T00:37:46.223Z,13.03
2017-05-20T00:40:09.590Z,13.01
2017-05-20T00:42:32.949Z,13.02
2017-05-20T00:44:56.323Z,12.78
2017-05-20T00:47:20.707Z,13.02
2017-05-20T00:49:44.095Z,12.98
2017-05-20T00:52:07.476Z,12.98
2017-05-20T00:54:30.869Z,12.88
2017-05-20T00:56:54.249Z,12.83
2017-05-20T00:59:04.420Z,13.01
2017-05-20T01:01:27.832Z,13.13
2017-05-20T01:03:51.216Z,13.19
2017-05-20T01:05:57.809Z,13.12
2017-05-20T01:08:21.182Z,12.95
2017-05-20T01:10:44.509Z,13.19
2017-05-20T01:13:07.893Z,13.12
2017-05-20T01:15:31.273Z,12.94
2017-05-20T01:17:46.264Z,12.84
2017-05-20T01:20:09.600Z,12.93
2017-05-20T01:22:07.752Z,12.98
2017-05-20T01:24:31.121Z,12.98
2017-05-20T01:26:46.088Z,13.05
2017-05-20T01:29:01.038Z,12.98
2017-05-20T01:31:24.371Z,12.93
2017-05-20T01:33:47.723Z,12.73
2017-05-20T01:36:02.660Z,12.63
2017-05-20T01:38:26.010Z,12.4
2017-05-20T01:40:35.656Z,12.58
2017-05-20T01:42:59.033Z,12.51
2017-05-20T01:45:22.364Z,12.66
2017-05-20T01:47:37.324Z,12.66
2017-05-20T01:50:00.643Z,12.45
2017-05-20T01:52:23.976Z,12.37
2017-05-20T01:54:47.283Z,12.43
2017-05-20T01:57:10.628Z,12.5
2017-05-20T01:59:33.986Z,12.54
2017-05-20T02:01:57.372Z,12.5
2017-05-20T02:04:20.740Z,12.48
2017-05-20T02:06:44.090Z,12.5
2017-05-20T02:09:07.454Z,12.43
2017-05-20T02:11:30.802Z,12.55
2017-05-20T02:13:54.123Z,12.43
2017-05-20T02:16:09.082Z,12.29
2017-05-20T02:18:15.633Z,12.33
2017-05-20T02:20:30.571Z,12.17
2017-05-20T02:22:45.496Z,12.21
2017-05-20T02:24:52.061Z,12.3
2017-05-20T02:27:15.430Z,12.43
2017-05-20T02:29:16.607Z,12.5
2017-05-20T02:31:39.942Z,12.23
2017-05-20T02:34:03.264Z,12.35
2017-05-20T02:36:13.411Z,12.39
2017-05-20T02:38:36.777Z,12.37
2017-05-20T02:40:51.713Z,12.3
2017-05-20T02:43:01.347Z,12.25
2017-05-20T02:45:16.305Z,12.03
2017-05-20T02:47:39.590Z,12.15
2017-05-20T02:49:54.496Z,12.2
2017-05-20T02:51:47.843Z,12.21
2017-05-20T02:54:02.779Z,12.26
2017-05-20T02:56:26.091Z,12.39
2017-05-20T02:58:49.415Z,12.29
2017-05-20T03:01:12.747Z,12.39
2017-05-20T03:03:36.118Z,12.26
2017-05-20T03:05:37.245Z,12.26
2017-05-20T03:08:00.586Z,12.26
2017-05-20T03:10:23.881Z,12.08
2017-05-20T03:12:47.209Z,12.23
2017-05-20T03:15:10.515Z,12.35
2017-05-20T03:17:33.855Z,12.21
2017-05-20T03:19:57.180Z,12.44
2017-05-20T03:21:49.940Z,12.48
2017-05-20T03:24:13.295Z,12.45
2017-05-20T03:26:36.616Z,12.43
2017-05-20T03:28:59.995Z,12.35
2017-05-20T03:31:14.940Z,12.26
2017-05-20T03:33:38.272Z,12.2
2017-05-20T03:36:01.610Z,12.2
2017-05-20T03:38:24.860Z,12.39
2017-05-20T03:40:48.197Z,12.58
2017-05-20T03:43:11.513Z,12.68
2017-05-20T03:45:35.725Z,12.7
2017-05-20T03:47:58.535Z,12.7
2017-05-20T03:50:13.469Z,12.78
2017-05-20T03:52:36.803Z,12.84
2017-05-20T03:54:51.738Z,12.94
2017-05-20T03:56:45.008Z,12.91
2017-05-20T03:58:59.982Z,12.83
2017-05-20T04:01:23.310Z,13.11
2017-05-20T04:03:46.648Z,13.16
2017-05-20T04:06:09.976Z,13.16
2017-05-20T04:08:33.321Z,13.2
2017-05-20T04:10:56.668Z,13.12
2017-05-20T04:13:19.986Z,12.98
2017-05-20T04:15:43.274Z,13.09
2017-05-20T04:18:06.626Z,13.37
2017-05-20T04:20:29.958Z,13.5
2017-05-20T04:22:53.338Z,13.65
2017-05-20T04:25:16.720Z,14
2017-05-20T04:27:40.129Z,14.23
2017-05-20T04:30:03.522Z,13.89
2017-05-20T04:32:26.967Z,16.49
2017-05-20T04:34:42.020Z,19.48
2017-05-20T04:36:17.804Z,21.19
2017-05-20T04:38:41.586Z,22.65
2017-05-20T04:41:05.497Z,22.1
2017-05-20T04:43:29.486Z,19.74
2017-05-20T04:45:53.485Z,20.12
2017-05-20T04:48:09.087Z,24.13
2017-05-20T04:50:33.208Z,26.6
2017-05-20T04:52:57.492Z,28.18
2017-05-20T04:55:21.928Z,29.98
2017-05-20T04:57:23.428Z,30.33
2017-05-20T04:59:48.122Z,31.51
2017-05-20T05:02:12.926Z,32.64
2017-05-20T05:04:37.915Z,32.61
2017-05-20T05:07:03.023Z,34.14
2017-05-20T05:09:28.241Z,36.94
2017-05-20T05:11:53.552Z,37.16
2017-05-20T05:14:18.967Z,36.92
2017-05-20T05:16:35.911Z,39.14
2017-05-20T05:19:01.456Z,37.64
2017-05-20T05:21:27.122Z,39.67
2017-05-20T05:23:44.351Z,39.41
2017-05-20T05:26:10.164Z,38.95
2017-05-20T05:28:36.051Z,41.68
2017-05-20T05:31:01.973Z,41.29
2017-05-20T05:33:19.423Z,41.8
2017-05-20T05:35:45.476Z,40.64
2017-05-20T05:38:11.572Z,40.58
2017-05-20T05:40:37.655Z,39.56
2017-05-20T05:43:03.783Z,39.91
2017-05-20T05:45:29.980Z,41.55
2017-05-20T05:47:56.194Z,41.58
2017-05-20T05:50:13.834Z,40.73
2017-05-20T05:52:40.101Z,40.85
2017-05-20T05:54:16.074Z,39.27
2017-05-20T05:56:42.433Z,41.1
2017-05-20T05:59:08.816Z,43.95
2017-05-20T06:01:35.254Z,45.2
2017-05-20T06:04:01.760Z,42.75
2017-05-20T06:06:19.722Z,44.38
2017-05-20T06:08:46.299Z,45.82
2017-05-20T06:11:12.870Z,45.28
2017-05-20T06:13:39.504Z,45.29
2017-05-20T06:16:06.195Z,42.86
2017-05-20T06:18:32.872Z,44.41
2017-05-20T06:20:59.563Z,41.68
2017-05-20T06:23:26.243Z,42.17
2017-05-20T06:25:52.962Z,44.68
2017-05-20T06:28:19.716Z,45.4
2017-05-20T06:30:22.394Z,46.3
2017-05-20T06:32:40.648Z,45.74
2017-05-20T06:34:51.878Z,45.86
2017-05-20T06:37:03.149Z,44.68
2017-05-20T06:39:21.456Z,43.57
2017-05-20T06:41:48.281Z,45.56
2017-05-20T06:44:06.520Z,38.56
2017-05-20T06:46:33.385Z,32.57
2017-05-20T06:49:00.217Z,30.49
2017-05-20T06:51:18.480Z,32.39
2017-05-20T06:53:45.280Z,31.17
2017-05-20T06:56:12.015Z,29.58
2017-05-20T06:58:30.004Z,31.45
2017-05-20T07:00:23.385Z,33.79
2017-05-20T07:02:49.668Z,32.85
2017-05-20T07:05:15.789Z,32.63
2017-05-20T07:07:33.195Z,31.42
2017-05-20T07:09:58.970Z,30.71
2017-05-20T07:12:24.590Z,30.51
2017-05-20T07:14:50.096Z,29.55
2017-05-20T07:17:06.988Z,29.9
2017-05-20T07:19:32.233Z,29.49
2017-05-20T07:21:48.938Z,29.83
2017-05-20T07:24:14.105Z,28.68
2017-05-20T07:26:39.173Z,28.18
2017-05-20T07:29:04.159Z,27.33
2017-05-20T07:31:29.138Z,26.52
2017-05-20T07:33:45.570Z,27.33
2017-05-20T07:35:53.511Z,27.94
2017-05-20T07:38:18.455Z,25.04
2017-05-20T07:40:43.369Z,26.18
2017-05-20T07:42:44.951Z,27.23
2017-05-20T07:45:09.853Z,27.57
2017-05-20T07:47:34.779Z,28.46
2017-05-20T07:49:59.702Z,28.33
2017-05-20T07:52:24.653Z,27.03
2017-05-20T07:54:49.613Z,25.76
2017-05-20T07:57:06.085Z,26.6
2017-05-20T07:59:31.038Z,27.95
2017-05-20T08:01:56.033Z,26.22
2017-05-20T08:04:21.000Z,26.06
2017-05-20T08:06:45.923Z,25.7
2017-05-20T08:09:10.804Z,25.83
2017-05-20T08:11:35.660Z,26.88
2017-05-20T08:13:52.098Z,27.29
2017-05-20T08:16:08.565Z,28.77
2017-05-20T08:18:33.532Z,28.38
2017-05-20T08:20:58.525Z,26.1
2017-05-20T08:23:23.453Z,27.16
2017-05-20T08:25:48.336Z,28.06
2017-05-20T08:28:04.752Z,29.4
2017-05-20T08:30:29.656Z,30.05
2017-05-20T08:32:54.610Z,30.63
2017-05-20T08:35:11.136Z,31.59
2017-05-20T08:37:36.189Z,29.49
2017-05-20T08:39:52.778Z,30.78
2017-05-20T08:42:00.855Z,29.3
2017-05-20T08:44:25.956Z,32
2017-05-20T08:46:51.091Z,31.39
2017-05-20T08:49:07.737Z,32.63
2017-05-20T08:51:24.415Z,35.13
2017-05-20T08:53:49.577Z,35.05
2017-05-20T08:56:06.331Z,36.41
2017-05-20T08:58:31.628Z,35.01
2017-05-20T09:00:56.912Z,34.02
2017-05-20T09:03:22.225Z,33.85
2017-05-20T09:05:47.539Z,30.24
2017-05-20T09:08:12.764Z,30.05
2017-05-20T09:10:37.916Z,31.45
2017-05-20T09:13:03.110Z,32.16
2017-05-20T09:15:28.306Z,33.92
2017-05-20T09:17:53.490Z,34.02
2017-05-20T09:20:18.707Z,33.42
2017-05-20T09:22:35.409Z,33.33
2017-05-20T09:24:11.309Z,32.83
2017-05-20T09:26:28.093Z,33.23
2017-05-20T09:28:44.807Z,33.03
2017-05-20T09:31:10.070Z,32.27
2017-05-20T09:33:35.257Z,29.46
2017-05-20T09:36:00.400Z,30.8
2017-05-20T09:38:25.486Z,31.35
2017-05-20T09:40:50.561Z,31.17
2017-05-20T09:43:07.159Z,29.25
2017-05-20T09:45:08.777Z,30.52
2017-05-20T09:47:33.828Z,32.97
2017-05-20T09:49:58.961Z,34.11
2017-05-20T09:52:24.065Z,32.17
2017-05-20T09:54:25.695Z,30.85
2017-05-20T09:56:50.823Z,29.39
2017-05-20T09:59:15.826Z,29.06
2017-05-20T10:01:40.828Z,28.25
2017-05-20T10:04:05.832Z,27.16
2017-05-20T10:06:30.733Z,25.92
2017-05-20T10:08:55.637Z,25.92
2017-05-20T10:10:57.214Z,26.93
2017-05-20T10:12:51.019Z,26.45
2017-05-20T10:15:15.868Z,25.07
2017-05-20T10:17:40.657Z,24.56
2017-05-20T10:20:05.356Z,24.06
2017-05-20T10:22:30.099Z,22.81
2017-05-20T10:24:46.147Z,22.33
2017-05-20T10:27:10.629Z,22.62
2017-05-20T10:29:35.129Z,22.43
2017-05-20T10:31:59.620Z,22.76
2017-05-20T10:34:24.008Z,23.11
2017-05-20T10:36:48.399Z,23.11
2017-05-20T10:39:12.786Z,23.25
2017-05-20T10:41:37.172Z,23.08
2017-05-20T10:44:01.570Z,23.1
2017-05-20T10:46:25.944Z,24.37
2017-05-20T10:48:50.331Z,25.01
2017-05-20T10:51:14.706Z,23.96
2017-05-20T10:53:39.228Z,24.68
2017-05-20T10:56:03.730Z,25.73
2017-05-20T10:58:29.236Z,26.26
2017-05-20T11:00:53.828Z,26.18
2017-05-20T11:03:18.424Z,25.25
2017-05-20T11:05:43.016Z,24.86
2017-05-20T11:08:07.611Z,24.81
2017-05-20T11:10:23.698Z,24.31
2017-05-20T11:12:48.191Z,23.94
2017-05-20T11:15:12.790Z,23.7
2017-05-20T11:17:37.282Z,23.66
2017-05-20T11:20:01.771Z,23.76
2017-05-20T11:22:26.261Z,24.25
2017-05-20T11:24:50.751Z,24.03
2017-05-20T11:27:15.246Z,24.01
2017-05-20T11:29:39.744Z,24.1
2017-05-20T11:31:55.729Z,24.65
2017-05-20T11:34:03.225Z,24.68
2017-05-20T11:36:27.714Z,24.4
2017-05-20T11:38:52.204Z,24.06
2017-05-20T11:41:16.694Z,24.13
2017-05-20T11:43:41.087Z,24.47
2017-05-20T11:45:57.078Z,24.56
2017-05-20T11:48:21.568Z,24.44
2017-05-20T11:50:46.062Z,24.65
2017-05-20T11:53:10.551Z,25.21
2017-05-20T11:55:35.050Z,24.99
2017-05-20T11:57:59.537Z,24.48
2017-05-20T12:00:15.545Z,24.28
2017-05-20T12:02:40.019Z,24.32
2017-05-20T12:05:04.512Z,23.96
2017-05-20T12:07:29.004Z,23.76
2017-05-20T12:09:53.494Z,24.41
2017-05-20T12:12:17.987Z,24.77
2017-05-20T12:14:42.462Z,24.36
2017-05-20T12:17:06.973Z,24.46
2017-05-20T12:19:31.450Z,25.04
2017-05-20T12:21:32.958Z,25.04
2017-05-20T12:23:57.507Z,25.11
2017-05-20T12:26:21.997Z,24.62
2017-05-20T12:28:23.583Z,25.24
2017-05-20T12:30:48.059Z,25.46
2017-05-20T12:33:12.533Z,24.85
2017-05-20T12:35:20.126Z,24.75
2017-05-20T12:37:44.623Z,24.48
2017-05-20T12:40:09.113Z,24.25
2017-05-20T12:42:33.603Z,24.44
2017-05-20T12:44:58.095Z,24.5
2017-05-20T12:47:22.583Z,24.06
2017-05-20T12:49:38.574Z,23.66
2017-05-20T12:52:03.067Z,23.45
2017-05-20T12:54:27.559Z,23.44
2017-05-20T12:56:43.450Z,23.51
2017-05-20T12:58:44.913Z,24
2017-05-20T13:01:09.393Z,23.48
2017-05-20T13:03:33.784Z,23.89
2017-05-20T13:05:58.193Z,23.74
2017-05-20T13:07:34.044Z,23.84
2017-05-20T13:09:58.511Z,22.58
2017-05-20T13:12:23.007Z,23.55
2017-05-20T13:14:47.391Z,24.29
2017-05-20T13:17:11.885Z,23.96
2017-05-20T13:19:36.276Z,23.89
2017-05-20T13:22:00.658Z,24.65
2017-05-20T13:24:25.051Z,24.53
2017-05-20T13:26:49.442Z,24.31
2017-05-20T13:29:13.932Z,24.22
2017-05-20T13:31:38.420Z,24.19
2017-05-20T13:34:02.918Z,24.71
2017-05-20T13:36:27.402Z,24.65
2017-05-20T13:38:51.900Z,24.31
2017-05-20T13:41:07.903Z,24.07
2017-05-20T13:43:32.305Z,23.91
2017-05-20T13:45:56.709Z,23.49
2017-05-20T13:48:21.168Z,23.67
2017-05-20T13:50:45.547Z,23.71
2017-05-20T13:53:09.936Z,23.58
2017-05-20T13:55:34.326Z,23.62
2017-05-20T13:57:50.217Z,23.84
2017-05-20T14:00:14.608Z,23.7
2017-05-20T14:02:38.997Z,23.86
2017-05-20T14:05:03.388Z,23.79
2017-05-20T14:07:27.776Z,23.59
2017-05-20T14:09:43.665Z,23.37
2017-05-20T14:12:08.056Z,23.89
2017-05-20T14:14:32.443Z,24.18
2017-05-20T14:16:56.838Z,23.86
2017-05-20T14:18:58.287Z,24.32
2017-05-20T14:21:22.775Z,24.69
2017-05-20T14:23:47.165Z,24.62
2017-05-20T14:26:11.553Z,24.34
2017-05-20T14:28:35.941Z,24.11
2017-05-20T14:30:43.436Z,24.37
2017-05-20T14:32:59.430Z,24.01
2017-05-20T14:35:15.419Z,24.34
2017-05-20T14:37:31.410Z,24.62
2017-05-20T14:39:55.906Z,24.51
2017-05-20T14:42:20.397Z,24.75
2017-05-20T14:44:44.888Z,24.63
2017-05-20T14:47:09.379Z,24.62
2017-05-20T14:49:33.868Z,24.28
2017-05-20T14:51:49.863Z,24.44
2017-05-20T14:54:14.350Z,24.48
2017-05-20T14:56:38.845Z,24.79
2017-05-20T14:59:03.232Z,24.89
2017-05-20T15:01:19.225Z,24.84
2017-05-20T15:03:43.717Z,24.81
2017-05-20T15:05:45.176Z,24.63
2017-05-20T15:08:01.261Z,24.46
2017-05-20T15:10:17.256Z,24.44
2017-05-20T15:12:41.644Z,24.44
2017-05-20T15:14:49.142Z,24.19
2017-05-20T15:17:13.512Z,23.99
2017-05-20T15:19:37.912Z,23.64
2017-05-20T15:22:02.306Z,23.47
2017-05-20T15:24:03.752Z,22.92
2017-05-20T15:26:05.246Z,22.65
2017-05-20T15:28:29.696Z,22.89
2017-05-20T15:30:54.082Z,23.49
2017-05-20T15:33:18.487Z,23.26
2017-05-20T15:35:42.766Z,23.1
2017-05-20T15:37:58.650Z,23.26
2017-05-20T15:40:23.040Z,23.45
2017-05-20T15:42:47.431Z,23.45
2017-05-20T15:45:11.822Z,23.07
2017-05-20T15:47:36.207Z,23.23
2017-05-20T15:50:00.596Z,23.1
2017-05-20T15:52:16.501Z,23.89
2017-05-20T15:54:40.882Z,23.02
2017-05-20T15:57:05.268Z,23.32
2017-05-20T15:59:29.656Z,23.56
2017-05-20T16:01:54.050Z,23.44
2017-05-20T16:04:18.436Z,23.08
2017-05-20T16:06:42.720Z,23.01
2017-05-20T16:08:58.617Z,23.28
2017-05-20T16:11:23.002Z,23.32
2017-05-20T16:13:47.289Z,23.02
2017-05-20T16:16:03.179Z,22.67
2017-05-20T16:18:19.065Z,23.06
2017-05-20T16:20:43.355Z,22.81
2017-05-20T16:22:53.384Z,22.46
2017-05-20T16:25:17.732Z,22.78
2017-05-20T16:27:33.582Z,22.59
2017-05-20T16:29:57.804Z,22.7
2017-05-20T16:31:59.208Z,22.71
2017-05-20T16:34:23.505Z,22.38
2017-05-20T16:36:39.294Z,22.25
2017-05-20T16:38:55.081Z,22.25
2017-05-20T16:40:56.516Z,21.99
2017-05-20T16:43:20.813Z,21.91
2017-05-20T16:45:45.103Z,21.88
2017-05-20T16:48:09.285Z,22
2017-05-20T16:50:25.078Z,22.14
2017-05-20T16:52:35.054Z,22.03
2017-05-20T16:54:59.310Z,21.72
2017-05-20T16:57:23.497Z,21.88
2017-05-20T16:59:39.278Z,21.54
2017-05-20T17:01:54.962Z,21.91
2017-05-20T17:04:19.155Z,21.88
2017-05-20T17:06:20.547Z,21.94
2017-05-20T17:08:44.788Z,21.85
2017-05-20T17:11:00.577Z,22.12
2017-05-20T17:13:24.759Z,22.03
2017-05-20T17:15:48.947Z,22.37
2017-05-20T17:17:59.381Z,22.31
2017-05-20T17:20:15.200Z,22.07
2017-05-20T17:22:39.381Z,22.38
2017-05-20T17:25:03.566Z,22.53
2017-05-20T17:27:27.852Z,22.25
2017-05-20T17:29:52.136Z,22.12
2017-05-20T17:32:16.322Z,22.15
2017-05-20T17:34:40.511Z,22.18
2017-05-20T17:36:50.444Z,22.36
2017-05-20T17:39:14.741Z,22.47
2017-05-20T17:41:30.462Z,22.38
2017-05-20T17:43:54.617Z,22.28
2017-05-20T17:46:18.788Z,21.96
2017-05-20T17:48:42.951Z,22.04
2017-05-20T17:50:58.615Z,21.91
2017-05-20T17:53:22.722Z,21.47
2017-05-20T17:55:38.367Z,21.69
2017-05-20T17:57:54.048Z,21.32
2017-05-20T18:00:18.184Z,21.6
2017-05-20T18:02:33.861Z,21.56
2017-05-20T18:04:57.891Z,21.25
2017-05-20T18:07:21.975Z,21.44
2017-05-20T18:09:37.621Z,21.43
2017-05-20T18:11:22.159Z,21.3
2017-05-20T18:13:46.277Z,21.23
2017-05-20T18:16:10.388Z,21.2
2017-05-20T18:18:34.469Z,21.11
2017-05-20T18:20:58.539Z,21.14
2017-05-20T18:23:22.630Z,21.25
2017-05-20T18:25:29.786Z,21.14
2017-05-20T18:27:53.831Z,21.13
2017-05-20T18:30:09.428Z,21.01
2017-05-20T18:32:33.468Z,20.67
2017-05-20T18:34:57.457Z,20.7
2017-05-20T18:36:59.325Z,20.67
2017-05-20T18:39:14.912Z,20.58
2017-05-20T18:41:30.489Z,20.4
2017-05-20T18:43:54.465Z,20.53
2017-05-20T18:46:18.434Z,20.52
2017-05-20T18:48:33.993Z,20.49
2017-05-20T18:50:57.972Z,20.18
2017-05-20T18:53:13.500Z,20.18
2017-05-20T18:55:37.484Z,20.18
2017-05-20T18:57:53.050Z,20.04
2017-05-20T18:59:54.463Z,20.03
2017-05-20T19:02:01.611Z,19.96
2017-05-20T19:04:25.541Z,20.03
2017-05-20T19:06:41.071Z,20.17
2017-05-20T19:09:04.984Z,20.07
2017-05-20T19:11:28.913Z,20.08
2017-05-20T19:13:52.861Z,20.07
2017-05-20T19:15:54.211Z,20.02
2017-05-20T19:17:29.991Z,20.03
2017-05-20T19:19:53.988Z,19.97
2017-05-20T19:22:09.493Z,19.92
2017-05-20T19:24:33.427Z,19.85
2017-05-20T19:26:57.395Z,19.93
2017-05-20T19:29:21.329Z,19.82
2017-05-20T19:31:45.262Z,19.71
2017-05-20T19:34:09.186Z,19.9
2017-05-20T19:36:33.156Z,19.77
2017-05-20T19:38:57.072Z,19.78
2017-05-20T19:41:20.957Z,19.78
2017-05-20T19:43:44.874Z,19.7
2017-05-20T19:46:08.798Z,19.48
2017-05-20T19:48:24.306Z,19.55
2017-05-20T19:50:48.243Z,19.55
2017-05-20T19:53:03.735Z,19.63
2017-05-20T19:55:27.601Z,19.44
2017-05-20T19:57:51.493Z,19.47
2017-05-20T19:59:52.824Z,19.42
2017-05-20T20:02:16.750Z,19.23
2017-05-20T20:04:40.639Z,19.22
2017-05-20T20:07:04.536Z,19.19
2017-05-20T20:09:19.971Z,19.12
2017-05-20T20:11:43.856Z,19.2
2017-05-20T20:13:53.752Z,18.97
2017-05-20T20:16:17.657Z,18.79
2017-05-20T20:18:33.146Z,18.63
2017-05-20T20:20:57.002Z,18.82
2017-05-20T20:23:12.429Z,18.74
2017-05-20T20:25:36.282Z,18.73
2017-05-20T20:27:51.698Z,18.78
2017-05-20T20:30:15.535Z,18.71
2017-05-20T20:32:39.393Z,18.89
2017-05-20T20:34:54.837Z,18.86
2017-05-20T20:37:01.843Z,18.73
2017-05-20T20:39:17.212Z,18.71
2017-05-20T20:41:32.608Z,18.67
2017-05-20T20:43:42.445Z,18.68
2017-05-20T20:46:06.298Z,18.51
2017-05-20T20:48:30.093Z,18.55
2017-05-20T20:50:53.926Z,18.55
2017-05-20T20:53:17.775Z,18.67
2017-05-20T20:55:33.203Z,18.49
2017-05-20T20:57:57.035Z,18.45
2017-05-20T21:00:20.833Z,18.57
2017-05-20T21:02:44.637Z,18.48
2017-05-20T21:05:08.478Z,18.41
2017-05-20T21:07:32.307Z,18.23
2017-05-20T21:09:56.133Z,18.03
2017-05-20T21:12:11.528Z,17.82
2017-05-20T21:14:35.371Z,17.93
2017-05-20T21:16:59.174Z,18.06
2017-05-20T21:19:22.993Z,17.88
2017-05-20T21:21:46.790Z,17.8
2017-05-20T21:24:10.587Z,17.72
2017-05-20T21:26:34.391Z,17.41
2017-05-20T21:28:58.181Z,17.41
2017-05-20T21:31:21.978Z,17.34
2017-05-20T21:33:45.762Z,17.13
2017-05-20T21:36:09.528Z,17.2
2017-05-20T21:38:33.320Z,17.39
2017-05-20T21:40:57.114Z,17.31
2017-05-20T21:43:20.895Z,17.32
2017-05-20T21:45:22.228Z,17.32
2017-05-20T21:47:37.614Z,17.34
2017-05-20T21:49:38.895Z,17.27
2017-05-20T21:52:02.641Z,17.14
2017-05-20T21:54:26.407Z,16.84
2017-05-20T21:56:50.145Z,17.07
2017-05-20T21:58:51.477Z,17.07
2017-05-20T22:01:15.245Z,17.01
2017-05-20T22:03:38.975Z,16.98
2017-05-20T22:06:02.704Z,17.04
2017-05-20T22:08:26.404Z,17.04
2017-05-20T22:10:27.741Z,17.02
2017-05-20T22:12:51.467Z,16.99
2017-05-20T22:15:06.771Z,17.12
2017-05-20T22:17:22.071Z,16.99
2017-05-20T22:19:45.784Z,17.09
2017-05-20T22:22:09.480Z,16.99
2017-05-20T22:24:33.203Z,16.94
2017-05-20T22:26:56.900Z,16.72
2017-05-20T22:29:20.601Z,16.64
2017-05-20T22:31:44.315Z,16.64
2017-05-20T22:34:08.001Z,16.54
2017-05-20T22:36:31.702Z,16.57
2017-05-20T22:38:55.431Z,16.57
2017-05-20T22:41:19.142Z,16.68
2017-05-20T22:43:42.874Z,16.62
2017-05-20T22:46:06.536Z,16.68
2017-05-20T22:48:30.195Z,16.72
2017-05-20T22:50:53.858Z,16.65
2017-05-20T22:53:09.156Z,16.65
2017-05-20T22:55:24.409Z,16.5
2017-05-20T22:57:48.072Z,16.44
2017-05-20T23:00:11.725Z,16.54
2017-05-20T23:02:26.947Z,16.49
2017-05-20T23:04:50.618Z,16.47
2017-05-20T23:07:14.295Z,16.5
2017-05-20T23:09:37.991Z,16.57
2017-05-20T23:12:01.634Z,16.57
2017-05-20T23:14:25.332Z,16.51
2017-05-20T23:16:26.599Z,16.54
2017-05-20T23:18:50.311Z,16.61
2017-05-20T23:21:14.028Z,16.51
2017-05-20T23:23:15.309Z,16.57
2017-05-20T23:25:16.555Z,16.64
2017-05-20T23:27:40.258Z,16.51
2017-05-20T23:30:03.932Z,16.44
2017-05-20T23:32:13.735Z,16.4
2017-05-20T23:34:37.417Z,16.43
2017-05-20T23:37:01.075Z,16.44
2017-05-20T23:39:24.695Z,16.34
2017-05-20T23:41:48.354Z,16.24
2017-05-20T23:44:11.970Z,16.28
2017-05-20T23:46:27.199Z,16.1
2017-05-20T23:48:50.891Z,16.25
2017-05-20T23:51:14.557Z,16.32
2017-05-20T23:53:38.206Z,16.32
2017-05-20T23:56:01.804Z,16.21
2017-05-20T23:58:17.044Z,16.13
